Time;durP1;ratioP1;P1;durP2;ratioP2;P2;SDS_P1;SDS_P2;PMS_P1;PMS_P2;Temp;Humidity;BMP_temperature;BMP_pressure;BME280_temperature;BME280_humidity;BME280_pressure;Samples;Min_cycle;Max_cycle;Signal;HPM_P1;HPM_P2
2022/07/14 00:01:03;;;;;;;7.70;2.30;;;20.40;99.90;;;;;;5060913;28;20481;-79
2022/07/14 00:03:29;;;;;;;5.85;2.28;;;20.40;99.90;;;;;;5075158;28;20063;-79
2022/07/14 00:05:54;;;;;;;12.00;3.10;;;20.40;99.90;;;;;;5073876;28;20500;-79
2022/07/14 00:08:21;;;;;;;7.47;2.40;;;20.30;99.90;;;;;;5074936;28;20393;-79
2022/07/14 00:10:47;;;;;;;9.23;2.72;;;20.50;99.90;;;;;;5073441;28;20472;-78
2022/07/14 00:13:12;;;;;;;12.32;2.60;;;20.70;99.90;;;;;;5074909;28;20023;-79
2022/07/14 00:15:38;;;;;;;8.80;2.40;;;20.70;99.90;;;;;;5074959;28;20028;-79
2022/07/14 00:18:04;;;;;;;11.13;2.67;;;20.80;99.90;;;;;;5074323;28;20039;-79
2022/07/14 00:20:30;;;;;;;8.00;2.58;;;20.90;99.90;;;;;;5075294;28;20040;-79
2022/07/14 00:22:56;;;;;;;10.00;3.17;;;20.80;99.90;;;;;;5074480;28;20033;-77
2022/07/14 00:25:24;;;;;;;9.05;2.80;;;20.90;99.90;;;;;;5073303;28;20029;-79
2022/07/14 00:27:50;;;;;;;11.02;2.53;;;20.90;99.90;;;;;;5074620;28;20032;-79
2022/07/14 00:30:15;;;;;;;6.38;2.58;;;21.10;99.90;;;;;;5073407;28;20074;-79
2022/07/14 00:32:41;;;;;;;9.88;2.50;;;20.90;99.90;;;;;;5074253;28;20034;-79
2022/07/14 00:35:08;;;;;;;9.18;3.03;;;20.80;99.90;;;;;;5074533;28;20026;-78
2022/07/14 00:37:34;;;;;;;7.40;2.55;;;20.80;99.90;;;;;;5072941;28;20459;-78
2022/07/14 00:40:00;;;;;;;5.78;1.83;;;20.90;99.90;;;;;;5074161;28;20120;-79
2022/07/14 00:42:28;;;;;;;7.78;2.83;;;20.70;99.90;;;;;;5074472;28;20044;-79
2022/07/14 00:44:54;;;;;;;9.13;2.75;;;20.50;99.90;;;;;;5072983;28;20128;-79
2022/07/14 00:47:20;;;;;;;11.43;2.60;;;20.80;99.90;;;;;;5072576;28;20055;-79
2022/07/14 00:49:45;;;;;;;8.43;2.65;;;20.80;99.90;;;;;;5074192;28;20032;-78
2022/07/14 00:52:14;;;;;;;8.80;2.35;;;20.70;99.90;;;;;;5067071;28;20021;-79
2022/07/14 00:54:40;;;;;;;9.18;2.95;;;20.50;99.90;;;;;;5052229;28;20024;-79
2022/07/14 00:57:06;;;;;;;7.45;2.92;;;20.50;99.90;;;;;;5063440;28;20036;-78
2022/07/14 00:59:32;;;;;;;11.07;3.13;;;20.90;99.90;;;;;;5047864;28;20377;-79
2022/07/14 01:01:58;;;;;;;11.98;3.22;;;20.80;99.90;;;;;;5039809;28;20064;-80
2022/07/14 01:04:23;;;;;;;10.27;2.83;;;20.90;99.90;;;;;;5068655;28;20049;-79
2022/07/14 01:06:49;;;;;;;12.10;3.22;;;20.80;99.90;;;;;;5073622;28;20040;-79
2022/07/14 01:09:15;;;;;;;10.10;2.92;;;20.60;99.90;;;;;;5070921;28;20161;-79
2022/07/14 01:11:41;;;;;;;11.00;2.58;;;20.70;99.90;;;;;;5059672;28;20017;-79
2022/07/14 01:14:07;;;;;;;7.55;2.80;;;20.50;99.90;;;;;;5073430;28;20024;-79
2022/07/14 01:16:32;;;;;;;13.88;2.85;;;20.40;99.90;;;;;;5073471;28;20024;-78
2022/07/14 01:18:58;;;;;;;12.75;2.80;;;20.20;99.90;;;;;;5071227;28;20031;-77
2022/07/14 01:21:25;;;;;;;14.48;3.05;;;20.60;99.90;;;;;;5073443;28;20101;-79
2022/07/14 01:23:51;;;;;;;9.65;3.10;;;20.60;99.90;;;;;;5072227;28;20012;-79
2022/07/14 01:26:17;;;;;;;14.15;3.08;;;20.30;99.90;;;;;;5071230;28;20439;-78
2022/07/14 01:28:42;;;;;;;12.27;2.97;;;20.40;99.90;;;;;;5059737;28;20013;-79
2022/07/14 01:31:08;;;;;;;12.27;3.10;;;20.30;99.90;;;;;;5073413;28;20115;-79
2022/07/14 01:33:34;;;;;;;9.77;2.70;;;20.20;99.90;;;;;;5073323;28;20103;-79
2022/07/14 01:36:00;;;;;;;14.73;3.40;;;20.30;99.90;;;;;;5073268;28;20027;-75
2022/07/14 01:38:26;;;;;;;8.50;2.65;;;20.30;99.90;;;;;;5071805;28;20033;-77
2022/07/14 01:40:51;;;;;;;12.65;2.80;;;20.10;99.90;;;;;;5071872;28;20545;-77
2022/07/14 01:43:17;;;;;;;12.05;3.50;;;20.20;99.90;;;;;;5054931;28;20017;-79
2022/07/14 01:45:43;;;;;;;9.00;3.05;;;20.40;99.90;;;;;;5071902;28;20044;-76
2022/07/14 01:48:09;;;;;;;12.00;2.70;;;20.50;99.90;;;;;;5071735;28;20034;-76
2022/07/14 01:50:35;;;;;;;11.48;3.00;;;20.30;99.90;;;;;;5072018;28;20066;-76
2022/07/14 01:53:01;;;;;;;9.50;2.75;;;20.20;99.90;;;;;;5071564;28;20124;-77
2022/07/14 01:55:28;;;;;;;11.73;2.97;;;20.20;99.90;;;;;;5071782;28;20025;-76
2022/07/14 01:57:54;;;;;;;8.77;2.60;;;20.20;99.90;;;;;;5072619;28;20095;-77
2022/07/14 02:00:20;;;;;;;9.98;3.05;;;20.30;99.90;;;;;;5071465;28;20116;-78
2022/07/14 02:02:50;;;;;;;16.40;3.60;;;20.10;99.90;;;;;;5058399;28;20051;-78
2022/07/14 02:05:16;;;;;;;11.75;3.45;;;20.20;99.90;;;;;;5071706;28;20500;-78
2022/07/14 02:07:43;;;;;;;10.32;2.92;;;20.20;99.90;;;;;;5071106;28;20024;-79
2022/07/14 02:13:01;;;;;;;14.07;3.15;;;20.10;99.90;;;;;;5037773;28;20040;-78
2022/07/14 02:15:28;;;;;;;20.15;4.07;;;19.80;99.90;;;;;;5065192;28;20033;-77
2022/07/14 02:17:54;;;;;;;9.73;3.03;;;19.80;99.90;;;;;;5071207;28;20021;-79
2022/07/14 02:20:20;;;;;;;11.82;3.25;;;19.70;99.90;;;;;;5071496;28;20035;-78
2022/07/14 02:22:47;;;;;;;9.90;3.38;;;19.80;99.90;;;;;;5054681;28;20039;-78
2022/07/14 02:25:13;;;;;;;18.17;3.35;;;19.80;99.90;;;;;;5071374;28;20033;-78
2022/07/14 02:27:38;;;;;;;14.63;3.58;;;20.00;99.90;;;;;;5070981;28;20027;-78
2022/07/14 02:30:05;;;;;;;11.77;3.38;;;20.20;99.90;;;;;;5054003;28;20392;-78
2022/07/14 02:32:31;;;;;;;14.20;3.45;;;20.20;99.90;;;;;;5072684;28;20451;-77
2022/07/14 02:34:58;;;;;;;17.80;3.33;;;20.20;99.90;;;;;;5054386;28;20048;-78
2022/07/14 02:37:24;;;;;;;12.43;3.72;;;20.00;99.90;;;;;;5071388;28;20115;-78
2022/07/14 02:39:50;;;;;;;13.20;3.53;;;19.80;99.90;;;;;;5072265;28;20027;-78
2022/07/14 02:42:15;;;;;;;16.52;3.83;;;19.60;99.90;;;;;;5070845;28;20028;-78
2022/07/14 02:44:42;;;;;;;18.38;3.63;;;19.60;99.90;;;;;;5070938;28;20021;-78
2022/07/14 02:47:09;;;;;;;15.50;3.47;;;19.50;99.90;;;;;;5071232;28;20392;-77
2022/07/14 02:49:36;;;;;;;11.10;3.15;;;19.30;99.90;;;;;;5071099;28;20031;-78
2022/07/14 02:52:02;;;;;;;11.25;3.30;;;19.20;99.90;;;;;;5072215;28;20032;-79
2022/07/14 02:54:29;;;;;;;16.65;3.67;;;19.10;99.90;;;;;;5071100;28;20028;-79
2022/07/14 02:56:55;;;;;;;15.60;3.53;;;19.20;99.90;;;;;;5070751;28;20020;-78
2022/07/14 02:59:21;;;;;;;13.07;3.67;;;19.20;99.90;;;;;;5071114;28;20024;-78
2022/07/14 03:01:50;;;;;;;17.52;4.20;;;19.40;99.90;;;;;;5058550;28;20450;-79
2022/07/14 03:04:20;;;;;;;15.15;4.05;;;19.60;99.90;;;;;;5070033;28;20416;-79
2022/07/14 03:06:47;;;;;;;15.35;4.45;;;19.40;99.90;;;;;;5070633;28;20511;-78
2022/07/14 03:09:16;;;;;;;13.75;4.05;;;18.90;99.90;;;;;;5070854;28;20024;-79
2022/07/14 03:11:42;;;;;;;18.45;5.10;;;18.60;99.90;;;;;;5071983;28;20419;-77
2022/07/14 03:14:09;;;;;;;15.80;3.75;;;18.50;99.90;;;;;;5070968;28;20020;-78
2022/07/14 03:16:35;;;;;;;13.10;4.25;;;18.50;99.90;;;;;;5070806;28;20544;-77
2022/07/14 03:19:06;;;;;;;14.50;4.07;;;18.50;99.90;;;;;;5070523;28;20094;-79
2022/07/14 03:21:32;;;;;;;17.70;4.60;;;18.40;99.90;;;;;;5070973;28;20071;-76
2022/07/14 03:24:00;;;;;;;17.98;4.13;;;18.50;99.90;;;;;;5070986;28;20056;-79
2022/07/14 03:26:29;;;;;;;14.93;3.95;;;18.50;99.90;;;;;;5070265;28;20032;-78
2022/07/14 03:28:55;;;;;;;14.38;4.50;;;18.20;99.90;;;;;;5070795;28;20369;-79
2022/07/14 03:31:23;;;;;;;17.38;4.50;;;18.10;99.90;;;;;;5070710;28;20052;-79
2022/07/14 03:33:49;;;;;;;17.65;4.72;;;18.00;99.90;;;;;;5070864;28;20029;-78
2022/07/14 03:36:18;;;;;;;19.30;4.60;;;18.10;99.90;;;;;;5068035;28;20317;-78
2022/07/14 03:38:44;;;;;;;19.60;4.90;;;18.00;99.90;;;;;;5070818;28;20540;-78
2022/07/14 03:41:11;;;;;;;13.07;4.70;;;18.30;99.90;;;;;;5071122;28;20115;-77
2022/07/14 03:43:39;;;;;;;19.60;4.30;;;18.30;99.90;;;;;;5073756;28;20013;-78
2022/07/14 03:46:06;;;;;;;15.40;4.43;;;18.10;99.90;;;;;;5073539;28;20052;-78
2022/07/14 03:48:35;;;;;;;17.55;4.40;;;17.90;99.90;;;;;;5073709;28;20449;-79
2022/07/14 03:51:04;;;;;;;17.00;4.57;;;17.80;99.90;;;;;;5073936;28;20028;-79
2022/07/14 03:53:32;;;;;;;27.90;4.55;;;17.90;99.90;;;;;;5073578;28;20013;-79
2022/07/14 03:55:59;;;;;;;20.67;5.25;;;18.20;99.90;;;;;;5073935;28;20036;-78
2022/07/14 03:58:26;;;;;;;19.48;5.15;;;18.40;99.90;;;;;;5073939;28;20056;-77
2022/07/14 04:00:52;;;;;;;13.70;4.15;;;18.60;99.90;;;;;;5052560;28;20544;-78
2022/07/14 04:03:19;;;;;;;14.57;3.90;;;18.60;99.90;;;;;;5064399;28;20075;-78
2022/07/14 04:05:45;;;;;;;16.80;3.95;;;18.60;99.90;;;;;;5073718;28;20031;-78
2022/07/14 04:08:14;;;;;;;13.20;4.20;;;18.70;99.90;;;;;;5073281;28;20060;-77
2022/07/14 04:10:47;;;;;;;20.02;4.13;;;18.80;99.90;;;;;;5073563;28;20055;-79
2022/07/14 04:13:15;;;;;;;17.70;3.92;;;18.70;99.90;;;;;;5073472;28;20032;-78
2022/07/14 04:15:41;;;;;;;23.92;4.40;;;18.90;99.90;;;;;;5073688;28;20025;-79
2022/07/14 04:18:08;;;;;;;19.33;4.25;;;19.10;99.90;;;;;;5073357;28;20496;-78
2022/07/14 04:20:36;;;;;;;17.25;3.83;;;19.20;99.90;;;;;;5073617;28;20469;-78
2022/07/14 04:23:03;;;;;;;23.23;3.90;;;19.40;99.90;;;;;;5073025;28;20016;-78
2022/07/14 04:25:30;;;;;;;18.70;3.80;;;19.30;99.90;;;;;;5074719;28;20381;-79
2022/07/14 04:27:55;;;;;;;21.90;3.42;;;19.30;99.90;;;;;;5073090;28;20043;-79
2022/07/14 04:30:21;;;;;;;29.63;4.18;;;19.40;99.90;;;;;;5073416;28;20480;-78
2022/07/14 04:32:47;;;;;;;17.42;4.55;;;19.50;99.90;;;;;;5074396;28;20056;-79
2022/07/14 04:35:15;;;;;;;20.92;3.67;;;19.40;99.90;;;;;;5073238;28;20028;-78
2022/07/14 04:37:42;;;;;;;17.60;4.38;;;19.20;99.90;;;;;;5072985;28;20430;-78
2022/07/14 04:40:20;;;;;;;19.45;4.68;;;19.10;99.90;;;;;;5060505;28;20024;-77
2022/07/14 04:42:47;;;;;;;18.45;3.70;;;19.30;99.90;;;;;;5073074;28;20035;-77
2022/07/14 04:45:12;;;;;;;22.90;3.50;;;19.30;99.90;;;;;;5072888;28;20021;-78
2022/07/14 04:47:39;;;;;;;21.60;4.00;;;19.10;99.90;;;;;;5072959;28;20024;-78
2022/07/14 04:52:52;;;;;;;19.77;4.18;;;18.80;99.90;;;;;;5072342;28;20060;-76
2022/07/14 04:55:41;;;;;;;14.90;3.38;;;18.70;99.90;;;;;;5065966;28;20032;-78
2022/07/14 04:58:13;;;;;;;16.45;4.07;;;18.80;99.90;;;;;;5072314;28;20024;-79
2022/07/14 05:00:39;;;;;;;19.88;3.58;;;18.70;99.90;;;;;;5070165;28;20031;-79
2022/07/14 05:03:05;;;;;;;20.48;4.68;;;18.90;99.90;;;;;;5062446;28;20469;-76
2022/07/14 05:05:31;;;;;;;13.80;3.72;;;18.90;99.90;;;;;;5072590;28;20128;-79
2022/07/14 05:07:58;;;;;;;19.23;3.75;;;19.30;99.90;;;;;;5055696;28;20020;-77
2022/07/14 05:10:31;;;;;;;17.95;3.88;;;19.60;99.90;;;;;;5072418;28;20392;-78
2022/07/14 05:12:57;;;;;;;27.77;4.20;;;19.30;99.90;;;;;;5072241;28;20025;-78
2022/07/14 05:15:23;;;;;;;21.00;3.97;;;19.20;99.90;;;;;;5072675;28;20048;-78
2022/07/14 05:17:51;;;;;;;18.40;3.90;;;18.90;99.90;;;;;;5072299;28;20040;-78
2022/07/14 05:20:17;;;;;;;14.82;3.67;;;18.50;99.90;;;;;;5072188;28;20028;-78
2022/07/14 05:22:44;;;;;;;16.15;3.80;;;18.40;99.90;;;;;;5071885;28;20051;-77
2022/07/14 05:25:13;;;;;;;18.08;3.50;;;18.70;99.90;;;;;;5072113;28;20460;-78
2022/07/14 05:27:39;;;;;;;14.55;4.15;;;18.90;99.90;;;;;;5072013;28;20028;-78
2022/07/14 05:30:09;;;;;;;18.05;3.85;;;19.00;99.90;;;;;;5072220;28;20455;-77
2022/07/14 05:32:37;;;;;;;16.85;3.88;;;18.90;99.90;;;;;;5072093;28;20044;-78
2022/07/14 05:35:05;;;;;;;10.90;3.22;;;19.20;99.90;;;;;;5071472;28;20468;-78
2022/07/14 05:37:32;;;;;;;19.75;4.05;;;19.30;99.90;;;;;;5072140;28;20396;-79
2022/07/14 05:40:00;;;;;;;29.17;4.65;;;19.40;99.90;;;;;;5071864;28;20028;-78
2022/07/14 05:42:26;;;;;;;15.98;3.35;;;19.60;99.90;;;;;;5072050;28;20024;-77
2022/07/14 05:44:52;;;;;;;20.48;3.95;;;19.40;99.90;;;;;;5071517;28;20546;-78
2022/07/14 05:47:18;;;;;;;19.40;3.95;;;19.30;99.90;;;;;;5055246;28;20449;-77
2022/07/14 05:49:44;;;;;;;23.50;4.45;;;19.30;99.90;;;;;;5072494;28;20128;-78
2022/07/14 05:52:14;;;;;;;20.83;3.95;;;19.20;99.90;;;;;;5071560;28;20492;-78
2022/07/14 05:54:40;;;;;;;18.92;3.92;;;19.10;99.90;;;;;;5071782;28;20406;-78
2022/07/14 05:57:11;;;;;;;18.35;3.78;;;19.30;99.90;;;;;;5054924;28;20016;-78
2022/07/14 05:59:37;;;;;;;21.13;4.38;;;19.30;99.90;;;;;;5071626;28;20503;-78
2022/07/14 06:02:03;;;;;;;23.25;4.40;;;19.30;99.90;;;;;;5058622;28;20032;-77
2022/07/14 06:04:30;;;;;;;25.75;3.30;;;19.40;99.90;;;;;;5070804;28;20012;-78
2022/07/14 06:06:59;;;;;;;12.95;3.40;;;19.40;99.90;;;;;;5071492;28;20509;-78
2022/07/14 06:09:25;;;;;;;17.75;3.67;;;19.30;99.90;;;;;;5071155;28;20056;-78
2022/07/14 06:11:51;;;;;;;14.70;3.22;;;19.50;99.90;;;;;;5071633;28;20040;-78
2022/07/14 06:14:19;;;;;;;19.40;4.15;;;19.70;99.90;;;;;;5071229;28;20103;-78
2022/07/14 06:16:47;;;;;;;18.33;3.92;;;19.80;99.90;;;;;;5071598;28;20078;-78
2022/07/14 06:19:13;;;;;;;16.27;3.47;;;19.70;99.90;;;;;;5070736;28;20028;-77
2022/07/14 06:21:40;;;;;;;21.92;4.05;;;19.60;99.90;;;;;;5071487;28;20031;-77
2022/07/14 06:24:06;;;;;;;16.90;3.50;;;19.50;99.90;;;;;;5071185;28;20063;-78
2022/07/14 06:26:32;;;;;;;18.02;3.72;;;19.50;99.90;;;;;;5071170;28;20043;-78
2022/07/14 06:28:58;;;;;;;17.88;3.35;;;19.40;99.90;;;;;;5071293;28;20372;-78
2022/07/14 06:31:24;;;;;;;20.77;3.50;;;19.40;99.90;;;;;;5071375;28;20564;-78
2022/07/14 06:33:51;;;;;;;13.88;4.45;;;19.80;99.90;;;;;;5071016;28;20080;-78
2022/07/14 06:36:52;;;;;;;20.45;3.17;;;19.80;99.90;;;;;;5064670;28;20100;-76
2022/07/14 06:39:18;;;;;;;16.27;3.83;;;20.10;99.90;;;;;;5072472;28;20444;-77
2022/07/14 06:41:43;;;;;;;16.17;3.80;;;20.40;99.90;;;;;;5071331;28;20469;-77
2022/07/14 06:44:12;;;;;;;24.63;4.10;;;20.30;99.90;;;;;;5071184;28;20060;-78
2022/07/14 06:46:38;;;;;;;18.75;4.03;;;20.10;99.90;;;;;;5071057;28;20047;-77
2022/07/14 06:49:04;;;;;;;19.35;3.90;;;19.90;99.90;;;;;;5070767;28;20025;-78
2022/07/14 06:51:30;;;;;;;15.23;3.70;;;20.20;99.90;;;;;;5065020;28;20070;-77
2022/07/14 06:53:57;;;;;;;21.75;3.55;;;20.80;99.90;;;;;;5047502;28;20033;-76
2022/07/14 06:56:23;;;;;;;18.30;3.10;;;21.40;99.90;;;;;;5056035;28;20531;-77
2022/07/14 06:58:48;;;;;;;14.70;3.95;;;21.60;99.90;;;;;;5056298;28;20021;-77
2022/07/14 07:01:14;;;;;;;14.23;2.92;;;21.50;99.90;;;;;;5060213;28;20033;-77
2022/07/14 07:03:40;;;;;;;23.95;3.63;;;21.10;99.90;;;;;;5050340;28;20389;-77
2022/07/14 07:08:51;;;;;;;20.45;3.72;;;21.10;99.90;;;;;;5059474;28;20029;-76
2022/07/14 07:11:17;;;;;;;31.80;4.10;;;21.50;99.90;;;;;;5043440;28;20025;-77
2022/07/14 07:13:43;;;;;;;13.82;3.55;;;21.90;99.90;;;;;;5064164;28;20028;-75
2022/07/14 07:16:09;;;;;;;19.70;3.80;;;21.80;99.90;;;;;;5074686;28;20029;-73
2022/07/14 07:18:35;;;;;;;18.58;3.63;;;21.30;99.90;;;;;;5075466;28;20027;-77
2022/07/14 07:21:01;;;;;;;24.83;3.97;;;21.20;99.90;;;;;;5066303;28;20035;-78
2022/07/14 07:23:27;;;;;;;16.75;3.83;;;21.10;99.90;;;;;;5074588;28;20020;-76
2022/07/14 07:25:54;;;;;;;17.40;3.70;;;21.30;99.90;;;;;;5075315;28;20040;-80
2022/07/14 07:28:20;;;;;;;21.98;3.83;;;21.20;99.90;;;;;;5057333;28;20017;-78
2022/07/14 07:30:45;;;;;;;23.95;4.05;;;21.30;99.90;;;;;;5074491;28;20120;-78
2022/07/14 07:33:11;;;;;;;17.52;3.28;;;21.50;99.90;;;;;;5073975;28;20036;-78
2022/07/14 07:35:38;;;;;;;21.88;3.47;;;21.50;99.90;;;;;;5075586;28;20039;-78
2022/07/14 07:38:04;;;;;;;15.95;3.28;;;21.60;99.90;;;;;;5068095;28;20385;-78
2022/07/14 07:40:30;;;;;;;17.10;2.80;;;21.80;99.90;;;;;;5074144;28;20032;-79
2022/07/14 07:42:55;;;;;;;12.32;3.35;;;22.00;99.90;;;;;;5074078;28;20036;-78
2022/07/14 07:45:22;;;;;;;12.77;3.35;;;22.10;99.90;;;;;;5075565;28;20415;-78
2022/07/14 07:47:48;;;;;;;19.58;3.58;;;22.30;99.90;;;;;;5075020;28;20142;-78
2022/07/14 07:50:14;;;;;;;18.02;3.38;;;22.60;99.90;;;;;;5075679;28;20051;-78
2022/07/14 07:52:40;;;;;;;15.15;3.53;;;22.80;99.90;;;;;;5075279;28;20484;-79
2022/07/14 07:55:10;;;;;;;23.83;3.72;;;22.90;99.90;;;;;;5075114;28;20524;-79
2022/07/14 07:57:37;;;;;;;17.67;3.13;;;23.20;99.90;;;;;;5075328;28;20039;-79
2022/07/14 08:00:06;;;;;;;9.90;2.15;;;23.10;99.90;;;;;;5073694;28;20415;-78
2022/07/14 08:02:48;;;;;;;11.60;2.33;;;23.20;99.30;;;;;;5060895;28;20020;-79
2022/07/14 08:05:16;;;;;;;10.30;2.58;;;23.30;98.80;;;;;;5075031;28;20032;-79
2022/07/14 08:07:42;;;;;;;9.80;2.88;;;23.60;98.40;;;;;;5070226;28;20389;-78
2022/07/14 08:10:08;;;;;;;11.27;2.42;;;23.40;98.60;;;;;;5065722;28;20115;-79
2022/07/14 08:12:34;;;;;;;9.77;2.20;;;23.20;98.40;;;;;;5063538;28;20056;-79
2022/07/14 08:14:59;;;;;;;13.05;2.63;;;23.50;97.60;;;;;;5073247;28;20024;-76
2022/07/14 08:17:25;;;;;;;16.88;3.10;;;23.30;97.90;;;;;;5074624;28;20029;-79
2022/07/14 08:19:51;;;;;;;10.63;2.90;;;23.30;98.20;;;;;;5075105;28;20082;-78
2022/07/14 08:22:27;;;;;;;18.17;2.67;;;23.00;98.50;;;;;;5073405;28;20017;-79
2022/07/14 08:24:54;;;;;;;18.80;3.05;;;23.10;99.10;;;;;;5074746;28;20089;-79
2022/07/14 08:27:21;;;;;;;14.65;2.95;;;23.20;99.90;;;;;;5073912;28;20036;-81
2022/07/14 08:29:47;;;;;;;13.00;2.53;;;23.10;99.90;;;;;;5074472;28;20025;-78
2022/07/14 08:32:12;;;;;;;14.38;3.60;;;23.10;99.90;;;;;;5073371;28;20029;-79
2022/07/14 08:34:38;;;;;;;19.08;3.38;;;23.10;99.90;;;;;;5074406;28;20495;-79
2022/07/14 08:37:05;;;;;;;12.95;3.28;;;23.00;99.90;;;;;;5074483;28;20064;-79
2022/07/14 08:39:31;;;;;;;13.63;3.00;;;23.00;99.90;;;;;;5074233;28;20419;-79
2022/07/14 08:42:02;;;;;;;18.48;4.00;;;23.10;99.90;;;;;;5074495;28;20477;-78
2022/07/14 08:44:28;;;;;;;16.92;3.10;;;22.70;99.90;;;;;;5073054;28;20037;-79
2022/07/14 08:46:55;;;;;;;9.48;2.30;;;22.90;99.90;;;;;;5074120;28;20040;-79
2022/07/14 08:49:21;;;;;;;17.20;2.72;;;23.00;99.90;;;;;;5072857;28;20396;-78
2022/07/14 08:51:49;;;;;;;15.52;3.13;;;23.30;99.90;;;;;;5072735;28;20435;-79
2022/07/14 08:54:16;;;;;;;19.83;2.97;;;23.50;99.30;;;;;;5073949;28;20024;-79
2022/07/14 08:56:42;;;;;;;11.00;2.22;;;23.50;99.00;;;;;;5073873;28;20025;-78
2022/07/14 08:59:09;;;;;;;12.23;2.55;;;23.20;99.00;;;;;;5072513;28;20361;-79
2022/07/14 09:01:36;;;;;;;14.25;2.70;;;22.90;99.40;;;;;;5063752;28;20021;-79
2022/07/14 09:04:02;;;;;;;10.65;2.05;;;23.20;99.40;;;;;;5070240;28;20034;-78
2022/07/14 09:06:52;;;;;;;13.07;3.00;;;22.90;99.60;;;;;;5073590;28;20082;-78
2022/07/14 09:09:34;;;;;;;13.13;2.92;;;23.00;99.90;;;;;;5073603;28;20464;-78
2022/07/14 09:12:04;;;;;;;14.55;3.35;;;23.20;99.70;;;;;;5073914;28;20032;-78
2022/07/14 09:17:18;;;;;;;21.50;3.83;;;23.10;99.90;;;;;;5073619;28;20044;-78
2022/07/14 09:20:16;;;;;;;16.75;3.42;;;23.00;99.90;;;;;;5069918;28;20029;-78
2022/07/14 09:22:43;;;;;;;20.45;3.10;;;23.00;98.90;;;;;;5046507;28;20063;-78
2022/07/14 09:25:12;;;;;;;13.75;3.35;;;23.20;99.40;;;;;;5073522;28;20040;-78
2022/07/14 09:27:39;;;;;;;11.05;2.75;;;22.90;99.00;;;;;;5071744;28;20029;-78
2022/07/14 09:30:06;;;;;;;13.40;2.63;;;23.00;98.90;;;;;;5072198;28;20028;-78
2022/07/14 09:32:44;;;;;;;13.77;2.60;;;23.20;97.60;;;;;;5073425;28;20063;-78
2022/07/14 09:35:11;;;;;;;14.32;3.25;;;23.40;97.70;;;;;;5038819;28;20107;-78
2022/07/14 09:37:39;;;;;;;14.00;2.40;;;23.60;97.90;;;;;;5066025;28;20086;-78
2022/07/14 09:40:09;;;;;;;11.15;3.03;;;23.90;97.30;;;;;;5072123;28;20025;-78
2022/07/14 09:43:03;;;;;;;9.32;2.13;;;24.20;96.90;;;;;;5071606;28;20029;-78
2022/07/14 09:45:31;;;;;;;13.90;2.33;;;24.20;95.30;;;;;;5048640;28;20068;-78
2022/07/14 09:48:02;;;;;;;11.27;2.63;;;24.40;95.10;;;;;;5073006;28;20357;-78
2022/07/14 09:50:43;;;;;;;18.33;2.70;;;24.30;94.80;;;;;;5046579;28;20043;-78
2022/07/14 09:53:17;;;;;;;13.05;2.58;;;24.40;94.40;;;;;;5072944;28;20029;-78
2022/07/14 09:55:59;;;;;;;10.18;2.30;;;24.80;94.10;;;;;;5055108;28;20033;-78
2022/07/14 09:58:31;;;;;;;7.68;2.00;;;24.70;93.10;;;;;;5072889;28;20050;-78
2022/07/14 10:01:03;;;;;;;14.55;3.38;;;25.10;93.60;;;;;;5067704;28;20025;-78
2022/07/14 10:03:31;;;;;;;14.43;2.63;;;25.00;93.30;;;;;;5064899;28;20024;-78
2022/07/14 10:05:58;;;;;;;12.63;2.08;;;25.00;93.20;;;;;;5072581;28;20032;-78
2022/07/14 10:08:27;;;;;;;12.82;2.40;;;25.30;92.20;;;;;;5072794;28;20477;-78
2022/07/14 10:10:54;;;;;;;11.52;2.22;;;25.00;92.50;;;;;;5071066;28;20560;-78
2022/07/14 10:13:22;;;;;;;7.32;2.13;;;25.50;92.80;;;;;;5071465;28;20447;-78
2022/07/14 10:15:50;;;;;;;14.20;2.15;;;26.00;91.80;;;;;;5072497;28;20119;-78
2022/07/14 10:18:16;;;;;;;9.93;2.20;;;25.70;90.70;;;;;;5072824;28;20028;-78
2022/07/14 10:20:48;;;;;;;8.65;1.63;;;26.00;91.30;;;;;;5073013;28;20036;-78
2022/07/14 10:23:14;;;;;;;6.65;1.70;;;26.10;90.70;;;;;;5072737;28;20025;-78
2022/07/14 10:25:41;;;;;;;14.07;2.30;;;25.50;90.70;;;;;;5070865;28;20045;-78
2022/07/14 10:28:08;;;;;;;7.03;2.05;;;25.20;90.60;;;;;;5072629;28;20036;-78
2022/07/14 10:31:07;;;;;;;5.22;1.38;;;24.90;89.80;;;;;;5071226;28;20027;-78
2022/07/14 10:34:07;;;;;;;3.17;0.90;;;25.20;86.00;;;;;;5067444;28;20121;-77
2022/07/14 10:36:50;;;;;;;5.45;1.08;;;25.50;81.00;;;;;;5072468;28;20111;-78
2022/07/14 10:39:57;;;;;;;6.68;1.75;;;25.70;81.60;;;;;;5072547;28;20040;-78
2022/07/14 10:42:43;;;;;;;4.63;1.33;;;25.70;83.70;;;;;;5024924;28;20503;-78
2022/07/14 10:45:10;;;;;;;6.45;1.60;;;26.20;83.50;;;;;;5071241;28;20021;-78
2022/07/14 10:48:04;;;;;;;8.18;1.77;;;26.40;81.20;;;;;;5072366;28;20026;-78
2022/07/14 10:50:30;;;;;;;5.40;1.48;;;26.30;83.30;;;;;;5072768;28;20039;-78
2022/07/14 10:53:03;;;;;;;7.95;1.45;;;26.60;84.00;;;;;;5076832;28;20119;-78
2022/07/14 10:55:29;;;;;;;9.90;1.85;;;26.30;82.20;;;;;;5076205;28;20461;-78
2022/07/14 10:58:01;;;;;;;7.57;1.45;;;26.40;84.00;;;;;;5076407;28;20107;-78
2022/07/14 11:00:47;;;;;;;10.32;1.75;;;26.70;82.70;;;;;;5076050;28;20074;-78
2022/07/14 11:03:19;;;;;;;10.73;1.65;;;27.10;82.40;;;;;;5076379;28;20536;-78
2022/07/14 11:06:18;;;;;;;12.65;1.60;;;26.80;81.30;;;;;;5075909;28;20128;-78
2022/07/14 11:09:18;;;;;;;11.52;1.58;;;26.90;80.80;;;;;;5067559;28;20040;-77
2022/07/14 11:12:13;;;;;;;6.80;1.35;;;26.40;82.60;;;;;;5075950;28;20029;-78
2022/07/14 11:14:43;;;;;;;9.80;1.80;;;26.00;81.40;;;;;;5075736;28;20020;-79
2022/07/14 11:17:37;;;;;;;12.38;1.73;;;26.60;82.60;;;;;;5075869;28;20029;-79
2022/07/14 11:20:04;;;;;;;3.88;1.27;;;26.30;81.40;;;;;;5075842;28;20035;-79
2022/07/14 11:22:30;;;;;;;6.93;1.45;;;26.50;82.80;;;;;;5057807;28;20035;-80
2022/07/14 11:24:58;;;;;;;5.22;1.77;;;26.90;81.50;;;;;;5075570;28;20586;-77
2022/07/14 11:27:41;;;;;;;5.28;1.60;;;26.40;81.10;;;;;;5075750;28;20047;-78
2022/07/14 11:30:30;;;;;;;10.73;1.70;;;26.80;82.00;;;;;;5048779;28;20036;-80
2022/07/14 11:33:05;;;;;;;6.55;1.67;;;26.80;80.60;;;;;;5075482;28;20028;-79
2022/07/14 11:38:39;;;;;;;5.03;1.50;;;27.00;81.40;;;;;;5048773;28;20112;-79
2022/07/14 11:41:12;;;;;;;6.35;1.70;;;26.90;81.70;;;;;;5075650;28;20051;-77
2022/07/14 11:43:40;;;;;;;9.00;1.90;;;26.90;82.00;;;;;;5048503;28;20021;-78
2022/07/14 11:46:09;;;;;;;12.50;2.05;;;26.90;81.50;;;;;;5075200;28;20458;-78
2022/07/14 11:48:38;;;;;;;12.13;2.08;;;26.70;82.80;;;;;;5075004;28;20465;-78
2022/07/14 11:51:09;;;;;;;8.88;1.92;;;27.00;82.60;;;;;;5075401;28;20397;-80
2022/07/14 11:53:37;;;;;;;7.55;1.90;;;27.30;82.70;;;;;;5073584;28;20020;-77
2022/07/14 11:56:06;;;;;;;11.55;2.63;;;27.20;82.00;;;;;;5075195;28;20035;-80
2022/07/14 11:58:32;;;;;;;7.07;1.88;;;27.00;83.90;;;;;;5057049;28;20027;-79
2022/07/14 12:01:00;;;;;;;13.05;2.22;;;27.60;82.50;;;;;;5069207;28;20036;-78
2022/07/14 12:03:27;;;;;;;11.68;2.78;;;27.80;83.50;;;;;;5066004;28;20029;-74
2022/07/14 12:05:55;;;;;;;7.53;2.38;;;27.70;83.30;;;;;;5074866;28;20036;-72
2022/07/14 12:08:23;;;;;;;10.75;3.47;;;27.70;83.10;;;;;;5074719;28;20032;-74
2022/07/14 12:10:49;;;;;;;10.13;2.67;;;27.00;83.80;;;;;;5056872;28;20031;-77
2022/07/14 12:13:16;;;;;;;7.95;3.42;;;27.40;84.60;;;;;;5055017;28;20021;-75
2022/07/14 12:15:42;;;;;;;16.58;3.42;;;27.80;83.70;;;;;;5063992;28;20020;-75
2022/07/14 12:18:10;;;;;;;9.73;2.70;;;27.90;82.80;;;;;;5051641;28;20051;-76
2022/07/14 12:20:47;;;;;;;10.82;2.63;;;28.00;84.70;;;;;;5053661;28;20488;-75
2022/07/14 12:23:15;;;;;;;8.95;2.40;;;28.10;83.00;;;;;;5053937;28;20033;-75
2022/07/14 12:25:46;;;;;;;9.60;2.22;;;28.20;82.50;;;;;;5062561;28;20025;-76
2022/07/14 12:28:17;;;;;;;14.25;2.38;;;28.60;82.90;;;;;;5057901;28;20116;-75
2022/07/14 12:30:53;;;;;;;16.42;3.05;;;28.30;80.20;;;;;;5050477;28;20029;-76
2022/07/14 12:33:36;;;;;;;9.38;1.83;;;27.80;79.70;;;;;;5052912;28;20025;-76
2022/07/14 12:36:03;;;;;;;6.40;1.65;;;27.40;82.50;;;;;;5060264;28;20028;-76
2022/07/14 12:38:32;;;;;;;13.65;1.90;;;27.70;79.50;;;;;;5043063;28;20071;-76
2022/07/14 12:41:03;;;;;;;8.07;2.25;;;27.90;81.90;;;;;;5055602;28;20763;-76
2022/07/14 12:43:41;;;;;;;5.65;1.55;;;27.60;80.20;;;;;;5056361;28;20031;-76
2022/07/14 12:46:10;;;;;;;7.80;1.65;;;27.70;80.00;;;;;;5069122;28;20088;-76
2022/07/14 12:48:57;;;;;;;6.35;2.05;;;26.30;79.50;;;;;;5060620;28;20028;-75
2022/07/14 12:51:43;;;;;;;4.75;2.25;;;26.20;82.30;;;;;;5058107;28;20505;-73
2022/07/14 12:54:17;;;;;;;7.25;2.17;;;27.40;82.60;;;;;;5043135;28;20102;-74
2022/07/14 12:56:53;;;;;;;6.65;1.95;;;28.10;82.10;;;;;;5064651;28;20028;-74
2022/07/14 12:59:22;;;;;;;6.50;2.08;;;28.00;81.40;;;;;;5053795;28;20044;-77
2022/07/14 13:01:53;;;;;;;6.38;1.75;;;28.00;81.70;;;;;;5053827;28;20025;-74
2022/07/14 13:04:39;;;;;;;8.93;2.00;;;28.00;80.50;;;;;;5072721;28;20033;-77